createdAt,value
2019-02-27T00:00:09.175Z,1027.30
2019-02-27T00:01:08.718Z,1027.36
2019-02-27T00:02:08.720Z,1027.34
2019-02-27T00:03:08.693Z,1027.33
2019-02-27T00:04:08.700Z,1027.34
2019-02-27T00:05:08.995Z,1027.37
2019-02-27T00:06:08.663Z,1027.29
2019-02-27T00:07:08.656Z,1027.30
2019-02-27T00:08:08.663Z,1027.30
2019-02-27T00:09:08.630Z,1027.26
2019-02-27T00:10:08.624Z,1027.28
2019-02-27T00:11:09.994Z,1027.24
2019-02-27T00:12:08.599Z,1027.23
2019-02-27T00:13:08.587Z,1027.24
2019-02-27T00:14:08.599Z,1027.23
2019-02-27T00:15:08.567Z,1027.20
2019-02-27T00:16:10.842Z,1027.22
2019-02-27T00:17:08.550Z,1027.18
2019-02-27T00:18:08.539Z,1027.19
2019-02-27T00:19:08.543Z,1027.15
2019-02-27T00:20:08.519Z,1027.14
2019-02-27T00:21:10.997Z,1027.17
2019-02-27T00:22:08.492Z,1027.16
2019-02-27T00:23:08.483Z,1027.17
2019-02-27T00:24:08.492Z,1027.14
2019-02-27T00:25:08.462Z,1027.14
2019-02-27T00:26:08.976Z,1027.19
2019-02-27T00:27:08.442Z,1027.16
2019-02-27T00:28:08.437Z,1027.13
2019-02-27T00:29:08.481Z,1027.13
2019-02-27T00:30:08.410Z,1027.11
2019-02-27T00:31:11.135Z,1027.07
2019-02-27T00:32:08.391Z,1027.08
2019-02-27T00:33:08.384Z,1027.08
2019-02-27T00:34:08.394Z,1027.06
2019-02-27T00:35:08.361Z,1027.09
2019-02-27T00:36:12.039Z,1027.03
2019-02-27T00:37:08.342Z,1027.00
2019-02-27T00:38:08.339Z,1027.03
2019-02-27T00:39:08.322Z,1026.99
2019-02-27T00:40:08.329Z,1026.99
2019-02-27T00:41:11.888Z,1026.94
2019-02-27T00:42:08.294Z,1026.95
2019-02-27T00:43:08.289Z,1026.92
2019-02-27T00:44:08.283Z,1026.97
2019-02-27T00:45:08.286Z,1026.94
2019-02-27T00:46:08.249Z,1026.96
2019-02-27T00:47:08.240Z,1026.90
2019-02-27T00:48:08.239Z,1026.89
2019-02-27T00:49:08.221Z,1026.91
2019-02-27T00:50:08.250Z,1026.87
2019-02-27T00:51:09.659Z,1026.81
2019-02-27T00:52:08.188Z,1026.88
2019-02-27T00:53:08.183Z,1026.84
2019-02-27T00:54:08.166Z,1026.84
2019-02-27T00:55:08.165Z,1026.83
2019-02-27T00:56:11.997Z,1026.81
2019-02-27T00:57:08.134Z,1026.83
2019-02-27T00:58:08.130Z,1026.77
2019-02-27T00:59:08.115Z,1026.85
2019-02-27T01:00:08.101Z,1026.79
2019-02-27T01:01:10.009Z,1026.86
2019-02-27T01:02:08.080Z,1026.84
2019-02-27T01:03:08.074Z,1026.84
2019-02-27T01:04:08.066Z,1026.83
2019-02-27T01:05:09.095Z,1026.85
2019-02-27T01:06:08.064Z,1026.86
2019-02-27T01:07:08.031Z,1026.85
2019-02-27T01:08:08.021Z,1026.83
2019-02-27T01:09:08.014Z,1026.80
2019-02-27T01:10:12.036Z,1026.81
2019-02-27T01:11:08.007Z,1026.81
2019-02-27T01:12:07.977Z,1026.75
2019-02-27T01:13:07.985Z,1026.77
2019-02-27T01:14:07.957Z,1026.76
2019-02-27T01:15:10.618Z,1026.75
2019-02-27T01:16:07.956Z,1026.80
2019-02-27T01:17:07.944Z,1026.83
2019-02-27T01:18:07.915Z,1026.79
2019-02-27T01:19:07.905Z,1026.78
2019-02-27T01:20:11.165Z,1026.80
2019-02-27T01:21:07.931Z,1026.78
2019-02-27T01:22:07.877Z,1026.82
2019-02-27T01:23:10.911Z,1026.82
2019-02-27T01:24:07.854Z,1026.74
2019-02-27T01:25:07.862Z,1026.79
2019-02-27T01:26:07.853Z,1026.83
2019-02-27T01:27:07.826Z,1026.77
2019-02-27T01:28:10.839Z,1026.78
2019-02-27T01:29:07.802Z,1026.75
2019-02-27T01:30:07.813Z,1026.78
2019-02-27T01:31:07.808Z,1026.73
2019-02-27T01:32:07.771Z,1026.70
2019-02-27T01:33:07.762Z,1026.70
2019-02-27T01:34:11.188Z,1026.66
2019-02-27T01:35:07.743Z,1026.60
2019-02-27T01:36:07.752Z,1026.60
2019-02-27T01:37:07.722Z,1026.64
2019-02-27T01:38:07.714Z,1026.57
2019-02-27T01:39:08.923Z,1026.59
2019-02-27T01:40:07.749Z,1026.59
2019-02-27T01:41:07.715Z,1026.54
2019-02-27T01:42:07.679Z,1026.54
2019-02-27T01:43:07.660Z,1026.57
2019-02-27T01:44:07.649Z,1026.56
2019-02-27T01:45:07.640Z,1026.58
2019-02-27T01:46:07.649Z,1026.59
2019-02-27T01:47:07.623Z,1026.59
2019-02-27T01:48:09.308Z,1026.59
2019-02-27T01:49:07.597Z,1026.55
2019-02-27T01:50:07.593Z,1026.48
2019-02-27T01:51:07.597Z,1026.58
2019-02-27T01:52:07.569Z,1026.43
2019-02-27T01:53:08.101Z,1026.48
2019-02-27T01:54:07.553Z,1026.48
2019-02-27T01:55:07.539Z,1026.42
2019-02-27T01:56:07.547Z,1026.41
2019-02-27T01:57:07.517Z,1026.38
2019-02-27T01:58:09.571Z,1026.32
2019-02-27T01:59:07.507Z,1026.29
2019-02-27T02:00:07.488Z,1026.31
2019-02-27T02:01:07.498Z,1026.35
2019-02-27T02:02:07.468Z,1026.32
2019-02-27T02:03:07.459Z,1026.29
2019-02-27T02:04:07.447Z,1026.27
2019-02-27T02:05:07.436Z,1026.25
2019-02-27T02:06:07.449Z,1026.26
2019-02-27T02:07:07.537Z,1026.20
2019-02-27T02:08:07.412Z,1026.22
2019-02-27T02:09:07.397Z,1026.20
2019-02-27T02:10:07.388Z,1026.19
2019-02-27T02:11:07.402Z,1026.19
2019-02-27T02:12:08.633Z,1026.16
2019-02-27T02:13:07.357Z,1026.15
2019-02-27T02:14:07.346Z,1026.12
2019-02-27T02:15:07.337Z,1026.15
2019-02-27T02:16:07.348Z,1026.08
2019-02-27T02:17:07.467Z,1026.05
2019-02-27T02:18:07.304Z,1026.08
2019-02-27T02:19:07.297Z,1026.03
2019-02-27T02:20:07.284Z,1026.04
2019-02-27T02:21:07.320Z,1025.98
2019-02-27T02:22:08.910Z,1025.99
2019-02-27T02:23:07.256Z,1025.93
2019-02-27T02:24:07.249Z,1025.91
2019-02-27T02:25:07.236Z,1025.90
2019-02-27T02:26:07.240Z,1025.82
2019-02-27T02:27:08.228Z,1025.86
2019-02-27T02:28:07.208Z,1025.89
2019-02-27T02:29:07.224Z,1025.83
2019-02-27T02:30:07.191Z,1025.73
2019-02-27T02:31:07.178Z,1025.77
2019-02-27T02:32:07.210Z,1025.75
2019-02-27T02:33:07.160Z,1025.77
2019-02-27T02:34:07.144Z,1025.75
2019-02-27T02:35:07.158Z,1025.78
2019-02-27T02:36:07.124Z,1025.74
2019-02-27T02:37:07.116Z,1025.71
2019-02-27T02:38:12.067Z,1025.70
2019-02-27T02:39:08.093Z,1025.71
2019-02-27T02:40:07.091Z,1025.69
2019-02-27T02:41:08.452Z,1025.69
2019-02-27T02:42:07.071Z,1025.66
2019-02-27T02:43:07.075Z,1025.70
2019-02-27T02:44:07.044Z,1025.66
2019-02-27T02:45:07.034Z,1025.64
2019-02-27T02:46:08.868Z,1025.70
2019-02-27T02:47:07.018Z,1025.61
2019-02-27T02:48:07.012Z,1025.62
2019-02-27T02:49:08.527Z,1025.65
2019-02-27T02:50:06.980Z,1025.64
2019-02-27T02:51:06.969Z,1025.66
2019-02-27T02:52:06.984Z,1025.58
2019-02-27T02:53:06.963Z,1025.66
2019-02-27T02:54:06.960Z,1025.65
2019-02-27T02:55:11.923Z,1025.63
2019-02-27T02:56:07.921Z,1025.60
2019-02-27T02:57:06.907Z,1025.54
2019-02-27T02:58:07.924Z,1025.61
2019-02-27T02:59:06.934Z,1025.59
2019-02-27T03:00:06.935Z,1025.54
2019-02-27T03:01:06.869Z,1025.53
2019-02-27T03:02:06.858Z,1025.56
2019-02-27T03:03:06.858Z,1025.56
2019-02-27T03:04:12.524Z,1025.54
2019-02-27T03:05:07.872Z,1025.55
2019-02-27T03:06:06.837Z,1025.48
2019-02-27T03:07:07.197Z,1025.51
2019-02-27T03:08:06.800Z,1025.50
2019-02-27T03:09:06.788Z,1025.48
2019-02-27T03:10:08.141Z,1025.48
2019-02-27T03:11:06.789Z,1025.45
2019-02-27T03:12:06.758Z,1025.44
2019-02-27T03:13:07.424Z,1025.43
2019-02-27T03:14:06.745Z,1025.42
2019-02-27T03:15:06.729Z,1025.42
2019-02-27T03:16:06.737Z,1025.45
2019-02-27T03:17:06.707Z,1025.40
2019-02-27T03:18:06.697Z,1025.38
2019-02-27T03:19:06.702Z,1025.33
2019-02-27T03:20:06.689Z,1025.34
2019-02-27T03:21:06.687Z,1025.29
2019-02-27T03:22:06.655Z,1025.27
2019-02-27T03:23:06.649Z,1025.22
2019-02-27T03:24:06.636Z,1025.27
2019-02-27T03:25:06.631Z,1025.30
2019-02-27T03:26:06.615Z,1025.22
2019-02-27T03:27:06.634Z,1025.25
2019-02-27T03:28:06.604Z,1025.25
2019-02-27T03:29:06.594Z,1025.31
2019-02-27T03:30:06.575Z,1025.28
2019-02-27T03:31:15.954Z,1025.28
2019-02-27T03:32:07.592Z,1025.22
2019-02-27T03:33:06.549Z,1025.27
2019-02-27T03:34:09.153Z,1025.29
2019-02-27T03:35:06.591Z,1025.28
2019-02-27T03:36:06.524Z,1025.26
2019-02-27T03:37:06.536Z,1025.29
2019-02-27T03:38:06.514Z,1025.22
2019-02-27T03:39:06.487Z,1025.18
2019-02-27T03:40:10.915Z,1025.21
2019-02-27T03:41:07.470Z,1025.26
2019-02-27T03:42:06.455Z,1025.27
2019-02-27T03:43:10.018Z,1025.26
2019-02-27T03:44:06.434Z,1025.17
2019-02-27T03:45:06.434Z,1025.19
2019-02-27T03:46:07.189Z,1025.23
2019-02-27T03:47:06.404Z,1025.23
2019-02-27T03:48:06.417Z,1025.21
2019-02-27T03:49:06.405Z,1025.20
2019-02-27T03:50:06.378Z,1025.16
2019-02-27T03:51:06.384Z,1025.20
2019-02-27T03:52:06.361Z,1025.18
2019-02-27T03:53:10.773Z,1025.24
2019-02-27T03:54:06.346Z,1025.21
2019-02-27T03:55:06.325Z,1025.19
2019-02-27T03:56:09.763Z,1025.27
2019-02-27T03:57:06.306Z,1025.29
2019-02-27T03:58:06.288Z,1025.36
2019-02-27T03:59:07.489Z,1025.27
2019-02-27T04:00:06.266Z,1025.27
2019-02-27T04:01:06.262Z,1025.22
2019-02-27T04:02:06.947Z,1025.18
2019-02-27T04:03:18.228Z,1025.20
2019-02-27T04:04:06.241Z,1025.21
2019-02-27T04:05:07.459Z,1025.19
2019-02-27T04:06:06.208Z,1025.18
2019-02-27T04:07:06.216Z,1025.15
2019-02-27T04:08:08.574Z,1025.16
2019-02-27T04:09:06.184Z,1025.13
2019-02-27T04:10:06.176Z,1025.16
2019-02-27T04:11:06.843Z,1025.14
2019-02-27T04:12:06.146Z,1025.15
2019-02-27T04:13:06.136Z,1025.15
2019-02-27T04:14:06.125Z,1025.19
2019-02-27T04:15:06.141Z,1025.09
2019-02-27T04:16:06.130Z,1025.19
2019-02-27T04:17:07.500Z,1025.19
2019-02-27T04:18:06.084Z,1025.13
2019-02-27T04:19:06.073Z,1025.13
2019-02-27T04:20:06.077Z,1025.13
2019-02-27T04:21:06.079Z,1025.09
2019-02-27T04:22:06.042Z,1025.02
2019-02-27T04:23:11.459Z,1025.05
2019-02-27T04:24:07.024Z,1025.01
2019-02-27T04:25:06.011Z,1025.02
2019-02-27T04:26:06.710Z,1025.06
2019-02-27T04:27:06.013Z,1025.06
2019-02-27T04:28:06.004Z,1025.08
2019-02-27T04:29:08.402Z,1025.09
2019-02-27T04:30:05.960Z,1025.16
2019-02-27T04:31:05.950Z,1025.11
2019-02-27T04:32:05.980Z,1025.14
2019-02-27T04:33:05.937Z,1025.09
2019-02-27T04:34:05.931Z,1025.07
2019-02-27T04:35:06.819Z,1025.06
2019-02-27T04:36:05.899Z,1025.05
2019-02-27T04:37:05.893Z,1025.04
2019-02-27T04:38:05.902Z,1025.03
2019-02-27T04:39:05.872Z,1025.05
2019-02-27T04:40:05.871Z,1025.05
2019-02-27T04:41:05.855Z,1025.05
2019-02-27T04:42:05.870Z,1025.05
2019-02-27T04:43:05.844Z,1025.09
2019-02-27T04:44:06.201Z,1025.07
2019-02-27T04:45:05.814Z,1025.08
2019-02-27T04:46:05.806Z,1025.04
2019-02-27T04:47:05.797Z,1025.07
2019-02-27T04:48:05.830Z,1025.02
2019-02-27T04:49:05.781Z,1025.00
2019-02-27T04:50:05.766Z,1024.95
2019-02-27T04:51:05.758Z,1025.02
2019-02-27T04:52:05.746Z,1024.97
2019-02-27T04:53:05.759Z,1024.94
2019-02-27T04:54:07.316Z,1024.93
2019-02-27T04:55:05.715Z,1024.97
2019-02-27T04:56:05.709Z,1024.96
2019-02-27T04:57:05.686Z,1024.93
2019-02-27T04:58:08.613Z,1024.94
2019-02-27T04:59:05.673Z,1025.00
2019-02-27T05:00:05.663Z,1025.00
2019-02-27T05:01:05.647Z,1025.01
2019-02-27T05:02:05.637Z,1024.99
2019-02-27T05:03:05.628Z,1024.97
2019-02-27T05:04:05.641Z,1024.97
2019-02-27T05:05:06.136Z,1024.93
2019-02-27T05:06:05.598Z,1024.99
2019-02-27T05:07:05.584Z,1024.94
2019-02-27T05:08:05.580Z,1024.89
2019-02-27T05:09:05.597Z,1024.93
2019-02-27T05:10:07.247Z,1024.92
2019-02-27T05:11:05.553Z,1024.92
2019-02-27T05:12:05.538Z,1024.92
2019-02-27T05:13:05.525Z,1024.90
2019-02-27T05:14:05.564Z,1024.94
2019-02-27T05:15:05.527Z,1024.92
2019-02-27T05:16:05.506Z,1024.86
2019-02-27T05:17:05.490Z,1024.83
2019-02-27T05:18:05.482Z,1024.85
2019-02-27T05:19:05.523Z,1024.81
2019-02-27T05:20:05.485Z,1024.83
2019-02-27T05:21:05.453Z,1024.83
2019-02-27T05:22:05.438Z,1024.76
2019-02-27T05:23:05.431Z,1024.75
2019-02-27T05:24:07.858Z,1024.78
2019-02-27T05:25:05.422Z,1024.77
2019-02-27T05:26:05.409Z,1024.76
2019-02-27T05:27:05.390Z,1024.74
2019-02-27T05:28:05.400Z,1024.79
2019-02-27T05:29:05.658Z,1024.76
2019-02-27T05:30:05.384Z,1024.74
2019-02-27T05:31:05.385Z,1024.78
2019-02-27T05:32:05.346Z,1024.76
2019-02-27T05:33:05.345Z,1024.77
2019-02-27T05:34:05.318Z,1024.77
2019-02-27T05:35:05.324Z,1024.78
2019-02-27T05:36:05.296Z,1024.81
2019-02-27T05:37:06.023Z,1024.79
2019-02-27T05:38:05.276Z,1024.80
2019-02-27T05:39:05.285Z,1024.79
2019-02-27T05:40:05.280Z,1024.82
2019-02-27T05:41:05.254Z,1024.78
2019-02-27T05:42:06.307Z,1024.76
2019-02-27T05:43:05.227Z,1024.77
2019-02-27T05:44:05.238Z,1024.85
2019-02-27T05:45:05.204Z,1024.76
2019-02-27T05:46:05.217Z,1024.75
2019-02-27T05:47:05.195Z,1024.70
2019-02-27T05:48:05.176Z,1024.76
2019-02-27T05:49:05.179Z,1024.70
2019-02-27T05:50:05.156Z,1024.66
2019-02-27T05:51:07.679Z,1024.66
2019-02-27T05:52:05.144Z,1024.69
2019-02-27T05:53:05.124Z,1024.64
2019-02-27T05:54:05.110Z,1024.69
2019-02-27T05:55:06.426Z,1024.64
2019-02-27T05:56:05.090Z,1024.64
2019-02-27T05:57:05.099Z,1024.61
2019-02-27T05:58:05.068Z,1024.63
2019-02-27T05:59:05.059Z,1024.57
2019-02-27T06:00:07.000Z,1024.59
2019-02-27T06:01:05.789Z,1024.58
2019-02-27T06:02:05.048Z,1024.60
2019-02-27T06:03:05.020Z,1024.54
2019-02-27T06:04:05.008Z,1024.59
2019-02-27T06:05:04.997Z,1024.59
2019-02-27T06:06:06.707Z,1024.61
2019-02-27T06:07:04.994Z,1024.61
2019-02-27T06:08:04.967Z,1024.65
2019-02-27T06:09:04.956Z,1024.63
2019-02-27T06:10:05.027Z,1024.62
2019-02-27T06:11:04.937Z,1024.65
2019-02-27T06:12:06.879Z,1024.62
2019-02-27T06:13:04.915Z,1024.62
2019-02-27T06:14:04.904Z,1024.66
2019-02-27T06:15:04.903Z,1024.64
2019-02-27T06:16:08.853Z,1024.62
2019-02-27T06:17:04.892Z,1024.62
2019-02-27T06:18:04.864Z,1024.66
2019-02-27T06:19:04.863Z,1024.61
2019-02-27T06:20:07.658Z,1024.59
2019-02-27T06:21:04.835Z,1024.56
2019-02-27T06:22:05.931Z,1024.57
2019-02-27T06:23:05.061Z,1024.54
2019-02-27T06:24:04.813Z,1024.55
2019-02-27T06:25:04.795Z,1024.55
2019-02-27T06:26:04.801Z,1024.51
2019-02-27T06:27:06.275Z,1024.53
2019-02-27T06:28:04.767Z,1024.50
2019-02-27T06:29:04.753Z,1024.50
2019-02-27T06:30:04.742Z,1024.51
2019-02-27T06:31:04.740Z,1024.46
2019-02-27T06:32:04.741Z,1024.48
2019-02-27T06:33:04.733Z,1024.46
2019-02-27T06:34:04.702Z,1024.48
2019-02-27T06:35:04.692Z,1024.51
2019-02-27T06:36:05.315Z,1024.51
2019-02-27T06:37:04.698Z,1024.51
2019-02-27T06:38:04.670Z,1024.52
2019-02-27T06:39:04.653Z,1024.52
2019-02-27T06:40:07.128Z,1024.55
2019-02-27T06:41:04.636Z,1024.57
2019-02-27T06:42:04.707Z,1024.56
2019-02-27T06:43:04.610Z,1024.55
2019-02-27T06:44:04.600Z,1024.57
2019-02-27T06:45:04.590Z,1024.54
2019-02-27T06:46:04.580Z,1024.59
2019-02-27T06:47:06.954Z,1024.51
2019-02-27T06:48:09.464Z,1024.48
2019-02-27T06:49:05.557Z,1024.51
2019-02-27T06:50:04.539Z,1024.54
2019-02-27T06:51:04.530Z,1024.57
2019-02-27T06:52:08.981Z,1024.57
2019-02-27T06:53:05.528Z,1024.62
2019-02-27T06:54:04.497Z,1024.56
2019-02-27T06:55:04.487Z,1024.60
2019-02-27T06:56:04.477Z,1024.59
2019-02-27T06:57:07.505Z,1024.58
2019-02-27T06:58:04.482Z,1024.54
2019-02-27T06:59:04.446Z,1024.48
2019-02-27T07:00:04.436Z,1024.44
2019-02-27T07:01:07.149Z,1024.48
2019-02-27T07:02:05.416Z,1024.47
2019-02-27T07:03:04.405Z,1024.52
2019-02-27T07:04:04.777Z,1024.52
2019-02-27T07:05:04.388Z,1024.54
2019-02-27T07:06:04.388Z,1024.55
2019-02-27T07:07:04.362Z,1024.54
2019-02-27T07:08:05.213Z,1024.50
2019-02-27T07:09:04.366Z,1024.46
2019-02-27T07:10:04.345Z,1024.48
2019-02-27T07:11:10.863Z,1024.49
2019-02-27T07:12:07.117Z,1024.50
2019-02-27T07:13:04.301Z,1024.47
2019-02-27T07:14:04.290Z,1024.44
2019-02-27T07:15:04.306Z,1024.44
2019-02-27T07:16:04.271Z,1024.47
2019-02-27T07:17:04.259Z,1024.36
2019-02-27T07:18:06.212Z,1024.38
2019-02-27T07:19:04.252Z,1024.38
2019-02-27T07:20:11.790Z,1024.41
2019-02-27T07:21:04.231Z,1024.42
2019-02-27T07:22:06.276Z,1024.47
2019-02-27T07:23:04.200Z,1024.40
2019-02-27T07:24:04.195Z,1024.43
2019-02-27T07:25:06.706Z,1024.46
2019-02-27T07:26:04.178Z,1024.40
2019-02-27T07:27:04.174Z,1024.37
2019-02-27T07:28:08.469Z,1024.40
2019-02-27T07:29:04.139Z,1024.38
2019-02-27T07:30:04.859Z,1024.32
2019-02-27T07:31:04.120Z,1024.37
2019-02-27T07:32:04.113Z,1024.34
2019-02-27T07:33:06.708Z,1024.34
2019-02-27T07:34:04.089Z,1024.32
2019-02-27T07:35:04.106Z,1024.34
2019-02-27T07:36:04.239Z,1024.35
2019-02-27T07:37:04.058Z,1024.29
2019-02-27T07:38:04.056Z,1024.37
2019-02-27T07:39:04.039Z,1024.33
2019-02-27T07:40:08.021Z,1024.33
2019-02-27T07:41:04.048Z,1024.36
2019-02-27T07:42:04.006Z,1024.39
2019-02-27T07:43:05.762Z,1024.41
2019-02-27T07:44:03.985Z,1024.38
2019-02-27T07:45:03.974Z,1024.43
2019-02-27T07:46:04.080Z,1024.40
2019-02-27T07:47:03.959Z,1024.37
2019-02-27T07:48:03.945Z,1024.40
2019-02-27T07:49:03.939Z,1024.36
2019-02-27T07:50:06.217Z,1024.38
2019-02-27T07:51:03.951Z,1024.32
2019-02-27T07:52:03.907Z,1024.29
2019-02-27T07:53:03.897Z,1024.36
2019-02-27T07:54:04.061Z,1024.34
2019-02-27T07:55:15.452Z,1024.33
2019-02-27T07:56:04.895Z,1024.28
2019-02-27T07:57:03.855Z,1024.29
2019-02-27T07:58:03.841Z,1024.27
2019-02-27T07:59:03.830Z,1024.31
2019-02-27T08:00:03.826Z,1024.28
2019-02-27T08:01:04.634Z,1024.28
2019-02-27T08:02:03.829Z,1024.23
2019-02-27T08:03:03.789Z,1024.26
2019-02-27T08:04:03.779Z,1024.20
2019-02-27T08:05:03.773Z,1024.21
2019-02-27T08:06:03.757Z,1024.26
2019-02-27T08:07:03.765Z,1024.27
2019-02-27T08:08:03.737Z,1024.27
2019-02-27T08:09:03.727Z,1024.27
2019-02-27T08:10:04.698Z,1024.24
2019-02-27T08:11:03.705Z,1024.17
2019-02-27T08:12:03.717Z,1024.21
2019-02-27T08:13:03.682Z,1024.18
2019-02-27T08:14:03.957Z,1024.21
2019-02-27T08:15:03.664Z,1024.23
2019-02-27T08:16:03.653Z,1024.34
2019-02-27T08:17:03.657Z,1024.30
2019-02-27T08:18:03.659Z,1024.32
2019-02-27T08:19:03.617Z,1024.34
2019-02-27T08:20:03.616Z,1024.32
2019-02-27T08:21:03.594Z,1024.37
2019-02-27T08:22:03.606Z,1024.35
2019-02-27T08:23:03.573Z,1024.38
2019-02-27T08:24:07.484Z,1024.35
2019-02-27T08:25:03.551Z,1024.34
2019-02-27T08:26:05.104Z,1024.32
2019-02-27T08:27:03.529Z,1024.34
2019-02-27T08:28:03.538Z,1024.31
2019-02-27T08:29:03.510Z,1024.33
2019-02-27T08:30:03.499Z,1024.33
2019-02-27T08:31:03.489Z,1024.33
2019-02-27T08:32:05.420Z,1024.31
2019-02-27T08:33:08.159Z,1024.32
2019-02-27T08:34:04.454Z,1024.36
2019-02-27T08:35:03.460Z,1024.36
2019-02-27T08:36:03.436Z,1024.32
2019-02-27T08:37:03.425Z,1024.33
2019-02-27T08:38:03.441Z,1024.39
2019-02-27T08:39:03.399Z,1024.41
2019-02-27T08:40:03.389Z,1024.40
2019-02-27T08:41:03.378Z,1024.43
2019-02-27T08:42:04.080Z,1024.38
2019-02-27T08:43:03.379Z,1024.33
2019-02-27T08:44:03.382Z,1024.38
2019-02-27T08:45:03.335Z,1024.36
2019-02-27T08:46:03.329Z,1024.36
2019-02-27T08:47:04.261Z,1024.34
2019-02-27T08:48:03.306Z,1024.35
2019-02-27T08:49:03.310Z,1024.36
2019-02-27T08:50:03.282Z,1024.35
2019-02-27T08:51:08.386Z,1024.28
2019-02-27T08:52:04.260Z,1024.25
2019-02-27T08:53:03.250Z,1024.24
2019-02-27T08:54:03.257Z,1024.24
2019-02-27T08:55:05.709Z,1024.22
2019-02-27T08:56:03.222Z,1024.22
2019-02-27T08:57:03.213Z,1024.19
2019-02-27T08:58:03.197Z,1024.13
2019-02-27T08:59:05.824Z,1024.17
2019-02-27T09:00:03.177Z,1024.16
2019-02-27T09:01:03.166Z,1024.19
2019-02-27T09:02:03.155Z,1024.18
2019-02-27T09:03:03.743Z,1024.15
2019-02-27T09:04:03.159Z,1024.15
2019-02-27T09:05:03.132Z,1024.12
2019-02-27T09:06:03.115Z,1024.06
2019-02-27T09:07:03.543Z,1024.07
2019-02-27T09:08:03.094Z,1024.08
2019-02-27T09:09:03.111Z,1024.09
2019-02-27T09:10:03.071Z,1024.04
2019-02-27T09:11:06.654Z,1024.08
2019-02-27T09:12:03.227Z,1024.06
2019-02-27T09:13:05.884Z,1024.05
2019-02-27T09:14:03.033Z,1024.08
2019-02-27T09:15:03.046Z,1024.03
2019-02-27T09:16:03.011Z,1023.98
2019-02-27T09:17:03.005Z,1024.00
2019-02-27T09:18:02.988Z,1023.99
2019-02-27T09:19:02.984Z,1024.03
2019-02-27T09:20:02.983Z,1023.98
2019-02-27T09:21:02.964Z,1023.96
2019-02-27T09:22:03.110Z,1023.94
2019-02-27T09:23:02.933Z,1023.95
2019-02-27T09:24:02.925Z,1023.99
2019-02-27T09:25:02.935Z,1023.94
2019-02-27T09:26:03.527Z,1023.92
2019-02-27T09:27:02.902Z,1023.89
2019-02-27T09:28:03.574Z,1023.85
2019-02-27T09:29:02.876Z,1023.86
2019-02-27T09:30:02.907Z,1023.81
2019-02-27T09:31:04.314Z,1023.79
2019-02-27T09:32:02.842Z,1023.75
2019-02-27T09:33:02.844Z,1023.79
2019-02-27T09:34:02.819Z,1023.77
2019-02-27T09:35:02.852Z,1023.75
2019-02-27T09:36:02.809Z,1023.79
2019-02-27T09:37:02.787Z,1023.74
2019-02-27T09:38:02.775Z,1023.72
2019-02-27T09:39:02.765Z,1023.77
2019-02-27T09:40:05.750Z,1023.75
2019-02-27T09:41:03.348Z,1023.77
2019-02-27T09:42:02.740Z,1023.73
2019-02-27T09:43:02.724Z,1023.67
2019-02-27T09:44:02.714Z,1023.65
2019-02-27T09:45:02.700Z,1023.63
2019-02-27T09:46:02.711Z,1023.61
2019-02-27T09:47:02.691Z,1023.65
2019-02-27T09:48:02.669Z,1023.59
2019-02-27T09:49:06.860Z,1023.61
2019-02-27T09:50:02.648Z,1023.60
2019-02-27T09:51:02.660Z,1023.59
2019-02-27T09:52:02.629Z,1023.60
2019-02-27T09:53:03.514Z,1023.54
2019-02-27T09:54:02.607Z,1023.60
2019-02-27T09:55:02.596Z,1023.57
2019-02-27T09:56:02.612Z,1023.56
2019-02-27T09:57:02.895Z,1023.52
2019-02-27T09:58:02.575Z,1023.54
2019-02-27T09:59:02.556Z,1023.53
2019-02-27T10:00:02.993Z,1023.53
2019-02-27T10:01:03.247Z,1023.57
2019-02-27T10:02:02.527Z,1023.54
2019-02-27T10:03:02.516Z,1023.53
2019-02-27T10:04:02.504Z,1023.53
2019-02-27T10:05:03.728Z,1023.47
2019-02-27T10:06:02.502Z,1023.52
2019-02-27T10:07:02.472Z,1023.48
2019-02-27T10:08:02.457Z,1023.49
2019-02-27T10:09:02.446Z,1023.43
2019-02-27T10:10:02.438Z,1023.48
2019-02-27T10:11:02.449Z,1023.51
2019-02-27T10:12:02.414Z,1023.48
2019-02-27T10:13:03.289Z,1023.47
2019-02-27T10:14:02.413Z,1023.47
2019-02-27T10:15:02.390Z,1023.43
2019-02-27T10:16:03.715Z,1023.42
2019-02-27T10:17:02.367Z,1023.44
2019-02-27T10:18:02.354Z,1023.48
2019-02-27T10:19:02.352Z,1023.43
2019-02-27T10:20:02.861Z,1023.40
2019-02-27T10:21:02.325Z,1023.40
2019-02-27T10:22:02.335Z,1023.33
2019-02-27T10:23:02.297Z,1023.34
2019-02-27T10:24:04.494Z,1023.32
2019-02-27T10:25:02.280Z,1023.33
2019-02-27T10:26:02.270Z,1023.33
2019-02-27T10:27:02.306Z,1023.35
2019-02-27T10:28:04.307Z,1023.38
2019-02-27T10:29:02.251Z,1023.36
2019-02-27T10:30:11.090Z,1023.38
2019-02-27T10:31:03.212Z,1023.29
2019-02-27T10:32:02.232Z,1023.27
2019-02-27T10:33:03.384Z,1023.31
2019-02-27T10:34:02.184Z,1023.26
2019-02-27T10:35:02.176Z,1023.30
2019-02-27T10:36:03.632Z,1023.34
2019-02-27T10:37:02.251Z,1023.31
2019-02-27T10:38:02.149Z,1023.26
2019-02-27T10:39:02.816Z,1023.26
2019-02-27T10:40:02.122Z,1023.22
2019-02-27T10:41:02.109Z,1023.20
2019-02-27T10:42:02.138Z,1023.19
2019-02-27T10:43:02.087Z,1023.19
2019-02-27T10:44:02.076Z,1023.20
2019-02-27T10:45:02.076Z,1023.22
2019-02-27T10:46:02.061Z,1023.22
2019-02-27T10:47:02.075Z,1023.20
2019-02-27T10:48:02.036Z,1023.26
2019-02-27T10:49:02.028Z,1023.28
2019-02-27T10:50:02.878Z,1023.26
2019-02-27T10:51:02.019Z,1023.26
2019-02-27T10:52:02.019Z,1023.30
2019-02-27T10:53:01.979Z,1023.26
2019-02-27T10:54:05.140Z,1023.23
2019-02-27T10:55:01.963Z,1023.24
2019-02-27T10:56:01.967Z,1023.21
2019-02-27T10:57:01.940Z,1023.19
2019-02-27T10:58:01.955Z,1023.20
2019-02-27T10:59:01.917Z,1023.12
2019-02-27T11:00:01.918Z,1023.14
2019-02-27T11:01:01.899Z,1023.12
2019-02-27T11:02:01.885Z,1023.12
2019-02-27T11:03:01.900Z,1023.09
2019-02-27T11:04:03.134Z,1023.08
2019-02-27T11:05:01.859Z,1023.02
2019-02-27T11:06:01.842Z,1023.05
2019-02-27T11:07:01.831Z,1022.99
2019-02-27T11:08:01.821Z,1023.02
2019-02-27T11:09:04.487Z,1022.91
2019-02-27T11:10:01.807Z,1022.91
2019-02-27T11:11:01.788Z,1022.90
2019-02-27T11:12:01.780Z,1022.84
2019-02-27T11:13:05.690Z,1022.87
2019-02-27T11:14:01.789Z,1022.85
2019-02-27T11:15:01.748Z,1022.81
2019-02-27T11:16:01.735Z,1022.77
2019-02-27T11:17:02.577Z,1022.71
2019-02-27T11:18:05.390Z,1022.71
2019-02-27T11:19:01.744Z,1022.68
2019-02-27T11:20:01.699Z,1022.68
2019-02-27T11:21:01.686Z,1022.62
2019-02-27T11:22:01.673Z,1022.58
2019-02-27T11:23:06.739Z,1022.62
2019-02-27T11:24:02.677Z,1022.61
2019-02-27T11:25:01.641Z,1022.58
2019-02-27T11:26:01.631Z,1022.58
2019-02-27T11:27:03.400Z,1022.55
2019-02-27T11:28:01.623Z,1022.53
2019-02-27T11:29:01.619Z,1022.58
2019-02-27T11:30:03.072Z,1022.52
2019-02-27T11:31:01.585Z,1022.47
2019-02-27T11:32:01.570Z,1022.42
2019-02-27T11:33:01.560Z,1022.43
2019-02-27T11:34:01.570Z,1022.38
2019-02-27T11:35:01.534Z,1022.35
2019-02-27T11:36:03.205Z,1022.33
2019-02-27T11:37:01.522Z,1022.29
2019-02-27T11:38:01.501Z,1022.31
2019-02-27T11:39:01.493Z,1022.31
2019-02-27T11:40:02.388Z,1022.34
2019-02-27T11:41:01.473Z,1022.26
2019-02-27T11:42:01.462Z,1022.25
2019-02-27T11:43:06.551Z,1022.20
2019-02-27T11:44:02.439Z,1022.16
2019-02-27T11:45:01.518Z,1022.19
2019-02-27T11:46:01.459Z,1022.15
2019-02-27T11:47:01.427Z,1022.18
2019-02-27T11:48:01.427Z,1022.10
2019-02-27T11:49:03.204Z,1022.04
2019-02-27T11:50:02.390Z,1022.04
2019-02-27T11:51:01.364Z,1022.11
2019-02-27T11:52:01.364Z,1022.08
2019-02-27T11:53:02.846Z,1022.10
2019-02-27T11:54:01.332Z,1022.09
2019-02-27T11:55:08.880Z,1022.08
2019-02-27T11:56:01.314Z,1022.03
2019-02-27T11:57:01.306Z,1021.99
2019-02-27T11:58:04.415Z,1022.04
2019-02-27T11:59:01.278Z,1021.98
2019-02-27T12:00:01.292Z,1021.98
2019-02-27T12:01:01.300Z,1021.99
2019-02-27T12:02:01.269Z,1021.94
2019-02-27T12:03:01.246Z,1021.88
2019-02-27T12:04:01.223Z,1021.88
2019-02-27T12:05:01.236Z,1021.81